sensor_id;sensor_type;location;lat;lon;timestamp;pressure;altitude;pressure_sealevel;temperature;humidity
13312;BME280;34033;48.672;9.376;2023-08-06T00:01:43;97793.19;;;18.33;89.69
13312;BME280;34033;48.672;9.376;2023-08-06T00:04:09;97784.06;;;18.29;90.16
13312;BME280;34033;48.672;9.376;2023-08-06T00:06:34;97777.72;;;18.25;90.20
13312;BME280;34033;48.672;9.376;2023-08-06T00:08:59;97781.47;;;18.22;90.13
13312;BME280;34033;48.672;9.376;2023-08-06T00:11:25;97777.03;;;18.21;90.22
13312;BME280;34033;48.672;9.376;2023-08-06T00:13:50;97773.88;;;18.19;89.58
13312;BME280;34033;48.672;9.376;2023-08-06T00:16:15;97771.97;;;18.16;89.18
13312;BME280;34033;48.672;9.376;2023-08-06T00:18:42;97766.31;;;18.16;88.93
13312;BME280;34033;48.672;9.376;2023-08-06T00:21:07;97769.16;;;18.16;88.85
13312;BME280;34033;48.672;9.376;2023-08-06T00:23:32;97769.50;;;18.18;88.57
13312;BME280;34033;48.672;9.376;2023-08-06T00:25:58;97764.72;;;18.15;88.44
13312;BME280;34033;48.672;9.376;2023-08-06T00:28:23;97763.72;;;18.09;89.09
13312;BME280;34033;48.672;9.376;2023-08-06T00:30:55;97761.03;;;18.06;88.68
13312;BME280;34033;48.672;9.376;2023-08-06T00:33:21;97766.81;;;18.02;88.81
13312;BME280;34033;48.672;9.376;2023-08-06T00:35:47;97764.56;;;17.97;88.94
13312;BME280;34033;48.672;9.376;2023-08-06T00:38:12;97763.00;;;17.96;88.41
13312;BME280;34033;48.672;9.376;2023-08-06T00:40:37;97757.44;;;17.92;88.30
13312;BME280;34033;48.672;9.376;2023-08-06T00:43:03;97757.56;;;17.89;88.35
13312;BME280;34033;48.672;9.376;2023-08-06T00:45:28;97765.72;;;17.87;88.69
13312;BME280;34033;48.672;9.376;2023-08-06T00:47:55;97767.53;;;17.81;88.74
13312;BME280;34033;48.672;9.376;2023-08-06T00:50:21;97766.75;;;17.80;88.69
13312;BME280;34033;48.672;9.376;2023-08-06T00:52:50;97762.56;;;17.85;89.07
13312;BME280;34033;48.672;9.376;2023-08-06T00:55:16;97767.75;;;17.86;89.15
13312;BME280;34033;48.672;9.376;2023-08-06T00:57:42;97767.28;;;17.88;89.01
13312;BME280;34033;48.672;9.376;2023-08-06T01:00:07;97758.81;;;17.88;89.01
13312;BME280;34033;48.672;9.376;2023-08-06T01:02:33;97762.56;;;17.85;89.18
13312;BME280;34033;48.672;9.376;2023-08-06T01:04:58;97755.19;;;17.87;88.42
13312;BME280;34033;48.672;9.376;2023-08-06T01:13:24;97754.41;;;17.87;87.03
13312;BME280;34033;48.672;9.376;2023-08-06T01:15:55;97756.91;;;17.85;86.78
13312;BME280;34033;48.672;9.376;2023-08-06T01:18:24;97756.22;;;17.81;86.28
13312;BME280;34033;48.672;9.376;2023-08-06T01:20:50;97754.53;;;17.71;86.57
13312;BME280;34033;48.672;9.376;2023-08-06T01:23:16;97755.78;;;17.70;86.22
13312;BME280;34033;48.672;9.376;2023-08-06T01:28:24;97744.03;;;17.59;87.41
13312;BME280;34033;48.672;9.376;2023-08-06T01:30:54;97758.72;;;17.53;86.68
13312;BME280;34033;48.672;9.376;2023-08-06T01:33:21;97756.38;;;17.52;86.76
13312;BME280;34033;48.672;9.376;2023-08-06T01:35:49;97759.63;;;17.50;86.99
13312;BME280;34033;48.672;9.376;2023-08-06T01:38:15;97757.59;;;17.51;87.46
13312;BME280;34033;48.672;9.376;2023-08-06T01:40:41;97747.41;;;17.53;87.39
13312;BME280;34033;48.672;9.376;2023-08-06T01:43:06;97750.59;;;17.56;87.42
13312;BME280;34033;48.672;9.376;2023-08-06T01:45:31;97737.59;;;17.58;87.04
13312;BME280;34033;48.672;9.376;2023-08-06T01:47:57;97731.16;;;17.58;86.68
13312;BME280;34033;48.672;9.376;2023-08-06T01:50:22;97732.38;;;17.57;86.58
13312;BME280;34033;48.672;9.376;2023-08-06T01:52:47;97735.56;;;17.59;86.01
13312;BME280;34033;48.672;9.376;2023-08-06T01:55:13;97726.38;;;17.55;86.36
13312;BME280;34033;48.672;9.376;2023-08-06T01:57:38;97728.91;;;17.52;85.92
13312;BME280;34033;48.672;9.376;2023-08-06T02:00:04;97724.47;;;17.51;85.44
13312;BME280;34033;48.672;9.376;2023-08-06T02:02:29;97732.06;;;17.42;85.53
13312;BME280;34033;48.672;9.376;2023-08-06T02:04:55;97719.75;;;17.36;85.67
13312;BME280;34033;48.672;9.376;2023-08-06T02:07:20;97714.91;;;17.36;85.48
13312;BME280;34033;48.672;9.376;2023-08-06T02:09:45;97711.38;;;17.32;84.84
13312;BME280;34033;48.672;9.376;2023-08-06T02:12:11;97710.03;;;17.24;85.32
13312;BME280;34033;48.672;9.376;2023-08-06T02:14:36;97704.63;;;17.17;85.86
13312;BME280;34033;48.672;9.376;2023-08-06T02:17:01;97710.84;;;17.12;85.75
13312;BME280;34033;48.672;9.376;2023-08-06T02:19:27;97707.88;;;17.16;86.77
13312;BME280;34033;48.672;9.376;2023-08-06T02:21:52;97703.47;;;17.15;86.76
13312;BME280;34033;48.672;9.376;2023-08-06T02:24:17;97706.09;;;17.09;86.94
13312;BME280;34033;48.672;9.376;2023-08-06T02:26:43;97695.03;;;17.02;88.12
13312;BME280;34033;48.672;9.376;2023-08-06T02:29:08;97695.03;;;17.02;87.71
13312;BME280;34033;48.672;9.376;2023-08-06T02:31:33;97698.06;;;16.95;88.37
13312;BME280;34033;48.672;9.376;2023-08-06T02:33:59;97694.78;;;16.84;88.69
13312;BME280;34033;48.672;9.376;2023-08-06T02:36:24;97693.19;;;16.83;88.16
13312;BME280;34033;48.672;9.376;2023-08-06T02:38:50;97685.06;;;16.85;88.24
13312;BME280;34033;48.672;9.376;2023-08-06T02:41:15;97679.56;;;16.81;88.32
13312;BME280;34033;48.672;9.376;2023-08-06T02:43:40;97671.84;;;16.82;87.70
13312;BME280;34033;48.672;9.376;2023-08-06T02:46:06;97671.84;;;16.82;87.40
13312;BME280;34033;48.672;9.376;2023-08-06T02:48:31;97673.09;;;16.81;87.55
13312;BME280;34033;48.672;9.376;2023-08-06T02:50:57;97668.34;;;16.78;88.32
13312;BME280;34033;48.672;9.376;2023-08-06T02:53:24;97660.69;;;16.78;87.64
13312;BME280;34033;48.672;9.376;2023-08-06T02:55:50;97660.31;;;16.76;87.41
13312;BME280;34033;48.672;9.376;2023-08-06T02:58:16;97654.81;;;16.73;86.97
13312;BME280;34033;48.672;9.376;2023-08-06T03:00:42;97657.28;;;16.71;86.16
13312;BME280;34033;48.672;9.376;2023-08-06T03:03:08;97654.13;;;16.68;85.34
13312;BME280;34033;48.672;9.376;2023-08-06T03:05:33;97657.28;;;16.71;85.04
13312;BME280;34033;48.672;9.376;2023-08-06T03:07:59;97650.88;;;16.70;85.16
13312;BME280;34033;48.672;9.376;2023-08-06T03:10:24;97650.88;;;16.70;84.84
13312;BME280;34033;48.672;9.376;2023-08-06T03:12:49;97655.22;;;16.58;84.87
13312;BME280;34033;48.672;9.376;2023-08-06T03:15:15;97650.47;;;16.55;85.38
13312;BME280;34033;48.672;9.376;2023-08-06T03:17:40;97645.72;;;16.52;85.68
13312;BME280;34033;48.672;9.376;2023-08-06T03:20:06;97640.75;;;16.56;84.08
13312;BME280;34033;48.672;9.376;2023-08-06T03:22:31;97639.53;;;16.57;83.12
13312;BME280;34033;48.672;9.376;2023-08-06T03:24:57;97643.06;;;16.61;82.69
13312;BME280;34033;48.672;9.376;2023-08-06T03:27:22;97634.47;;;16.65;82.11
13312;BME280;34033;48.672;9.376;2023-08-06T03:29:50;97632.13;;;16.63;82.87
13312;BME280;34033;48.672;9.376;2023-08-06T03:32:16;97634.94;;;16.63;83.17
13312;BME280;34033;48.672;9.376;2023-08-06T03:34:41;97637.75;;;16.63;84.13
13312;BME280;34033;48.672;9.376;2023-08-06T03:37:07;97639.00;;;16.62;84.50
13312;BME280;34033;48.672;9.376;2023-08-06T03:39:32;97635.13;;;16.56;85.29
13312;BME280;34033;48.672;9.376;2023-08-06T03:41:57;97635.13;;;16.56;85.02
13312;BME280;34033;48.672;9.376;2023-08-06T03:44:22;97628.38;;;16.54;85.35
13312;BME280;34033;48.672;9.376;2023-08-06T03:46:48;97627.22;;;16.51;85.38
13312;BME280;34033;48.672;9.376;2023-08-06T03:49:13;97630.38;;;16.53;85.44
13312;BME280;34033;48.672;9.376;2023-08-06T03:51:38;97636.91;;;16.50;85.03
13312;BME280;34033;48.672;9.376;2023-08-06T03:54:04;97637.72;;;16.51;85.60
13312;BME280;34033;48.672;9.376;2023-08-06T03:56:29;97636.91;;;16.50;85.96
13312;BME280;34033;48.672;9.376;2023-08-06T03:58:54;97635.31;;;16.49;85.29
13312;BME280;34033;48.672;9.376;2023-08-06T04:01:20;97637.34;;;16.49;85.37
13312;BME280;34033;48.672;9.376;2023-08-06T04:03:45;97637.59;;;16.54;85.44
13312;BME280;34033;48.672;9.376;2023-08-06T04:06:10;97636.72;;;16.57;84.71
13312;BME280;34033;48.672;9.376;2023-08-06T04:08:36;97622.94;;;16.59;84.37
13312;BME280;34033;48.672;9.376;2023-08-06T04:11:01;97630.28;;;16.57;84.46
13312;BME280;34033;48.672;9.376;2023-08-06T04:13:27;97622.94;;;16.59;84.44
13312;BME280;34033;48.672;9.376;2023-08-06T04:15:52;97616.88;;;16.61;84.75
13312;BME280;34033;48.672;9.376;2023-08-06T04:18:18;97615.28;;;16.60;84.45
13312;BME280;34033;48.672;9.376;2023-08-06T04:20:45;97606.03;;;16.59;84.53
13312;BME280;34033;48.672;9.376;2023-08-06T04:23:10;97607.16;;;16.62;84.66
13312;BME280;34033;48.672;9.376;2023-08-06T04:25:36;97628.38;;;16.66;83.92
13312;BME280;34033;48.672;9.376;2023-08-06T04:28:01;97630.19;;;16.60;82.88
13312;BME280;34033;48.672;9.376;2023-08-06T04:30:26;97622.50;;;16.61;82.70
13312;BME280;34033;48.672;9.376;2023-08-06T04:32:52;97625.41;;;16.57;82.56
13312;BME280;34033;48.672;9.376;2023-08-06T04:35:17;97625.06;;;16.55;83.63
13312;BME280;34033;48.672;9.376;2023-08-06T04:37:42;97625.31;;;16.61;83.73
13312;BME280;34033;48.672;9.376;2023-08-06T04:40:08;97628.50;;;16.63;83.87
13312;BME280;34033;48.672;9.376;2023-08-06T04:42:33;97627.09;;;16.42;85.58
13312;BME280;34033;48.672;9.376;2023-08-06T04:45:01;97630.47;;;16.50;86.18
13312;BME280;34033;48.672;9.376;2023-08-06T04:47:27;97625.84;;;16.43;85.66
13312;BME280;34033;48.672;9.376;2023-08-06T04:49:52;97642.34;;;16.57;85.80
13312;BME280;34033;48.672;9.376;2023-08-06T04:52:18;97642.78;;;16.56;85.08
13312;BME280;34033;48.672;9.376;2023-08-06T04:54:43;97650.22;;;16.37;85.40
13312;BME280;34033;48.672;9.376;2023-08-06T04:57:09;97650.34;;;16.46;85.42
13312;BME280;34033;48.672;9.376;2023-08-06T04:59:34;97657.22;;;16.45;84.53
13312;BME280;34033;48.672;9.376;2023-08-06T05:01:59;97652.22;;;16.24;84.55
13312;BME280;34033;48.672;9.376;2023-08-06T05:04:25;97654.97;;;16.40;84.92
13312;BME280;34033;48.672;9.376;2023-08-06T05:06:50;97662.19;;;16.41;84.97
13312;BME280;34033;48.672;9.376;2023-08-06T05:09:15;97650.34;;;16.46;85.19
13312;BME280;34033;48.672;9.376;2023-08-06T05:11:41;97649.56;;;16.58;84.30
13312;BME280;34033;48.672;9.376;2023-08-06T05:14:06;97650.16;;;16.66;84.16
13312;BME280;34033;48.672;9.376;2023-08-06T05:16:31;97650.97;;;16.66;83.03
13312;BME280;34033;48.672;9.376;2023-08-06T05:18:57;97658.53;;;16.70;83.21
13312;BME280;34033;48.672;9.376;2023-08-06T05:21:22;97656.38;;;16.74;83.42
13312;BME280;34033;48.672;9.376;2023-08-06T05:23:47;97661.91;;;16.77;82.78
13312;BME280;34033;48.672;9.376;2023-08-06T05:26:13;97663.63;;;16.75;83.10
13312;BME280;34033;48.672;9.376;2023-08-06T05:28:40;97661.81;;;16.81;82.84
13312;BME280;34033;48.672;9.376;2023-08-06T05:31:06;97651.56;;;16.87;82.84
13312;BME280;34033;48.672;9.376;2023-08-06T05:33:31;97663.59;;;16.87;82.13
13312;BME280;34033;48.672;9.376;2023-08-06T05:35:57;97663.97;;;16.89;82.16
13312;BME280;34033;48.672;9.376;2023-08-06T05:38:22;97656.84;;;16.85;81.29
13312;BME280;34033;48.672;9.376;2023-08-06T05:40:48;97646.00;;;16.96;81.94
13312;BME280;34033;48.672;9.376;2023-08-06T05:43:14;97642.63;;;17.01;81.84
13312;BME280;34033;48.672;9.376;2023-08-06T05:45:39;97643.06;;;17.12;81.19
13312;BME280;34033;48.672;9.376;2023-08-06T05:48:04;97645.31;;;17.17;80.39
13312;BME280;34033;48.672;9.376;2023-08-06T05:50:30;97656.19;;;16.81;78.60
13312;BME280;34033;48.672;9.376;2023-08-06T05:52:55;97653.13;;;17.00;81.40
13312;BME280;34033;48.672;9.376;2023-08-06T05:55:21;97653.44;;;17.15;81.41
13312;BME280;34033;48.672;9.376;2023-08-06T05:57:47;97657.91;;;17.50;81.68
13312;BME280;34033;48.672;9.376;2023-08-06T06:00:12;97657.25;;;17.46;75.39
13312;BME280;34033;48.672;9.376;2023-08-06T06:02:37;97665.97;;;17.39;77.76
13312;BME280;34033;48.672;9.376;2023-08-06T06:05:03;97657.88;;;17.03;77.73
13312;BME280;34033;48.672;9.376;2023-08-06T06:07:28;97674.56;;;17.23;78.12
13312;BME280;34033;48.672;9.376;2023-08-06T06:09:53;97676.47;;;16.88;77.18
13312;BME280;34033;48.672;9.376;2023-08-06T06:12:19;97684.06;;;16.91;81.85
13312;BME280;34033;48.672;9.376;2023-08-06T06:14:44;97682.47;;;16.90;80.69
13312;BME280;34033;48.672;9.376;2023-08-06T06:17:09;97681.47;;;16.97;82.78
13312;BME280;34033;48.672;9.376;2023-08-06T06:19:35;97680.09;;;16.89;78.72
13312;BME280;34033;48.672;9.376;2023-08-06T06:22:00;97683.81;;;16.73;76.79
13312;BME280;34033;48.672;9.376;2023-08-06T06:24:25;97687.22;;;16.81;78.91
13312;BME280;34033;48.672;9.376;2023-08-06T06:26:51;97686.69;;;16.57;78.62
13312;BME280;34033;48.672;9.376;2023-08-06T06:29:16;97681.56;;;16.93;78.41
13312;BME280;34033;48.672;9.376;2023-08-06T06:31:41;97690.72;;;17.10;78.88
13312;BME280;34033;48.672;9.376;2023-08-06T06:34:07;97687.88;;;17.10;77.38
13312;BME280;34033;48.672;9.376;2023-08-06T06:36:32;97695.13;;;16.98;76.50
13312;BME280;34033;48.672;9.376;2023-08-06T06:38:57;97701.22;;;17.09;79.35
13312;BME280;34033;48.672;9.376;2023-08-06T06:41:22;97697.41;;;17.03;78.16
13312;BME280;34033;48.672;9.376;2023-08-06T06:43:49;97705.31;;;17.08;78.94
13312;BME280;34033;48.672;9.376;2023-08-06T06:46:14;97704.59;;;17.04;80.18
13312;BME280;34033;48.672;9.376;2023-08-06T06:48:39;97715.91;;;17.04;80.82
13312;BME280;34033;48.672;9.376;2023-08-06T06:51:05;97700.53;;;17.05;80.59
13312;BME280;34033;48.672;9.376;2023-08-06T06:53:30;97709.81;;;17.19;79.66
13312;BME280;34033;48.672;9.376;2023-08-06T06:56:03;97709.47;;;16.91;77.30
13312;BME280;34033;48.672;9.376;2023-08-06T06:58:29;97698.28;;;17.38;80.80
13312;BME280;34033;48.672;9.376;2023-08-06T07:00:55;97709.16;;;17.87;78.36
13312;BME280;34033;48.672;9.376;2023-08-06T07:03:20;97697.44;;;18.10;76.24
13312;BME280;34033;48.672;9.376;2023-08-06T07:05:45;97704.75;;;18.20;76.16
13312;BME280;34033;48.672;9.376;2023-08-06T07:08:11;97704.72;;;17.99;71.74
13312;BME280;34033;48.672;9.376;2023-08-06T07:10:36;97709.13;;;18.00;75.44
13312;BME280;34033;48.672;9.376;2023-08-06T07:13:02;97706.69;;;17.76;74.48
13312;BME280;34033;48.672;9.376;2023-08-06T07:15:27;97690.47;;;17.68;75.77
13312;BME280;34033;48.672;9.376;2023-08-06T07:17:53;97707.09;;;17.53;74.64
13312;BME280;34033;48.672;9.376;2023-08-06T07:20:18;97701.34;;;17.19;77.27
13312;BME280;34033;48.672;9.376;2023-08-06T07:22:44;97697.16;;;17.10;78.48
13312;BME280;34033;48.672;9.376;2023-08-06T07:25:09;97707.44;;;17.04;77.40
13312;BME280;34033;48.672;9.376;2023-08-06T07:27:35;97708.25;;;17.30;79.59
13312;BME280;34033;48.672;9.376;2023-08-06T07:30:00;97701.75;;;17.68;80.20
13312;BME280;34033;48.672;9.376;2023-08-06T07:32:26;97708.38;;;17.86;80.16
13312;BME280;34033;48.672;9.376;2023-08-06T07:34:53;97707.41;;;17.68;77.14
13312;BME280;34033;48.672;9.376;2023-08-06T07:37:22;97716.00;;;17.26;77.61
13312;BME280;34033;48.672;9.376;2023-08-06T07:39:47;97712.16;;;17.45;82.62
13312;BME280;34033;48.672;9.376;2023-08-06T07:42:13;97705.16;;;17.37;81.37
13312;BME280;34033;48.672;9.376;2023-08-06T07:44:38;97705.28;;;17.21;81.20
13312;BME280;34033;48.672;9.376;2023-08-06T07:47:04;97704.06;;;17.22;82.88
13312;BME280;34033;48.672;9.376;2023-08-06T07:49:29;97702.34;;;17.37;82.72
13312;BME280;34033;48.672;9.376;2023-08-06T07:51:55;97712.88;;;17.24;81.78
13312;BME280;34033;48.672;9.376;2023-08-06T07:54:20;97721.78;;;17.23;81.02
13312;BME280;34033;48.672;9.376;2023-08-06T07:56:45;97719.06;;;17.32;82.17
13312;BME280;34033;48.672;9.376;2023-08-06T07:59:11;97714.09;;;17.36;82.88
13312;BME280;34033;48.672;9.376;2023-08-06T08:01:36;97718.03;;;17.38;80.24
13312;BME280;34033;48.672;9.376;2023-08-06T08:04:01;97718.94;;;17.48;80.33
13312;BME280;34033;48.672;9.376;2023-08-06T08:06:27;97722.34;;;17.18;79.44
13312;BME280;34033;48.672;9.376;2023-08-06T08:08:52;97718.41;;;17.28;81.95
13312;BME280;34033;48.672;9.376;2023-08-06T08:11:17;97716.44;;;17.50;82.09
13312;BME280;34033;48.672;9.376;2023-08-06T08:13:43;97711.72;;;17.60;79.84
13312;BME280;34033;48.672;9.376;2023-08-06T08:16:09;97719.97;;;17.67;80.62
13312;BME280;34033;48.672;9.376;2023-08-06T08:18:34;97712.94;;;17.59;79.21
13312;BME280;34033;48.672;9.376;2023-08-06T08:20:59;97728.88;;;17.78;77.93
13312;BME280;34033;48.672;9.376;2023-08-06T08:23:25;97712.75;;;17.53;78.37
13312;BME280;34033;48.672;9.376;2023-08-06T08:25:50;97715.69;;;17.62;79.10
13312;BME280;34033;48.672;9.376;2023-08-06T08:28:16;97714.50;;;17.85;79.26
13312;BME280;34033;48.672;9.376;2023-08-06T08:30:41;97706.75;;;17.98;77.23
13312;BME280;34033;48.672;9.376;2023-08-06T08:33:07;97705.63;;;17.96;75.18
13312;BME280;34033;48.672;9.376;2023-08-06T08:35:33;97711.72;;;18.07;76.62
13312;BME280;34033;48.672;9.376;2023-08-06T08:37:58;97704.84;;;18.51;76.25
13312;BME280;34033;48.672;9.376;2023-08-06T08:40:29;97710.38;;;18.55;71.55
13312;BME280;34033;48.672;9.376;2023-08-06T08:42:57;97722.91;;;18.32;72.04
13312;BME280;34033;48.672;9.376;2023-08-06T08:45:26;97709.00;;;18.25;71.40
13312;BME280;34033;48.672;9.376;2023-08-06T08:47:51;97716.63;;;17.81;73.63
13312;BME280;34033;48.672;9.376;2023-08-06T08:50:17;97724.00;;;17.78;75.08
13312;BME280;34033;48.672;9.376;2023-08-06T08:52:44;97724.50;;;17.39;76.30
13312;BME280;34033;48.672;9.376;2023-08-06T08:55:12;97725.59;;;17.54;76.79
13312;BME280;34033;48.672;9.376;2023-08-06T08:57:39;97722.34;;;17.30;76.31
13312;BME280;34033;48.672;9.376;2023-08-06T09:00:05;97727.09;;;17.21;77.02
13312;BME280;34033;48.672;9.376;2023-08-06T09:02:32;97734.00;;;17.20;76.13
13312;BME280;34033;48.672;9.376;2023-08-06T09:04:59;97734.75;;;17.20;76.38
13312;BME280;34033;48.672;9.376;2023-08-06T09:07:27;97732.84;;;16.92;78.98
13312;BME280;34033;48.672;9.376;2023-08-06T09:09:54;97736.34;;;17.21;79.58
13312;BME280;34033;48.672;9.376;2023-08-06T09:12:22;97730.00;;;17.42;77.94
13312;BME280;34033;48.672;9.376;2023-08-06T09:14:47;97741.22;;;17.46;77.03
13312;BME280;34033;48.672;9.376;2023-08-06T09:17:13;97745.41;;;17.41;77.15
13312;BME280;34033;48.672;9.376;2023-08-06T09:19:42;97738.72;;;17.23;75.92
13312;BME280;34033;48.672;9.376;2023-08-06T09:22:12;97741.44;;;17.51;75.35
13312;BME280;34033;48.672;9.376;2023-08-06T09:24:40;97740.03;;;17.81;76.21
13312;BME280;34033;48.672;9.376;2023-08-06T09:27:10;97727.72;;;18.22;74.14
13312;BME280;34033;48.672;9.376;2023-08-06T09:29:40;97725.94;;;18.38;72.08
13312;BME280;34033;48.672;9.376;2023-08-06T09:32:05;97734.75;;;18.18;71.71
13312;BME280;34033;48.672;9.376;2023-08-06T09:34:31;97735.59;;;17.93;72.89
13312;BME280;34033;48.672;9.376;2023-08-06T09:36:56;97736.84;;;18.26;72.46
13312;BME280;34033;48.672;9.376;2023-08-06T09:39:27;97734.94;;;18.58;70.30
13312;BME280;34033;48.672;9.376;2023-08-06T09:42:00;97734.81;;;18.92;70.97
13312;BME280;34033;48.672;9.376;2023-08-06T09:44:27;97728.59;;;18.75;69.32
13312;BME280;34033;48.672;9.376;2023-08-06T09:46:57;97728.75;;;18.72;70.38
13312;BME280;34033;48.672;9.376;2023-08-06T09:49:28;97730.25;;;18.64;70.29
13312;BME280;34033;48.672;9.376;2023-08-06T09:51:54;97720.94;;;18.42;69.42
13312;BME280;34033;48.672;9.376;2023-08-06T09:54:24;97723.44;;;18.40;72.51
13312;BME280;34033;48.672;9.376;2023-08-06T09:56:54;97725.88;;;18.28;74.44
13312;BME280;34033;48.672;9.376;2023-08-06T09:59:20;97740.00;;;18.07;75.12
13312;BME280;34033;48.672;9.376;2023-08-06T10:01:46;97732.19;;;17.98;76.75
13312;BME280;34033;48.672;9.376;2023-08-06T10:04:13;97732.78;;;17.93;76.30
13312;BME280;34033;48.672;9.376;2023-08-06T10:06:42;97740.25;;;17.87;77.75
13312;BME280;34033;48.672;9.376;2023-08-06T10:09:08;97747.22;;;17.61;77.20
13312;BME280;34033;48.672;9.376;2023-08-06T10:11:36;97741.31;;;17.80;77.52
13312;BME280;34033;48.672;9.376;2023-08-06T10:14:06;97750.56;;;17.81;78.10
13312;BME280;34033;48.672;9.376;2023-08-06T10:16:34;97761.00;;;17.46;75.99
13312;BME280;34033;48.672;9.376;2023-08-06T10:19:01;97739.50;;;17.48;80.57
13312;BME280;34033;48.672;9.376;2023-08-06T10:21:26;97747.44;;;17.41;81.46
13312;BME280;34033;48.672;9.376;2023-08-06T10:23:54;97743.34;;;17.17;82.00
13312;BME280;34033;48.672;9.376;2023-08-06T10:26:20;97755.91;;;17.03;82.53
13312;BME280;34033;48.672;9.376;2023-08-06T10:28:45;97755.53;;;16.76;84.61
13312;BME280;34033;48.672;9.376;2023-08-06T10:31:11;97754.13;;;16.67;85.14
13312;BME280;34033;48.672;9.376;2023-08-06T10:33:46;97756.72;;;16.62;86.57
13312;BME280;34033;48.672;9.376;2023-08-06T10:36:13;97757.00;;;16.80;86.29
13312;BME280;34033;48.672;9.376;2023-08-06T10:38:48;97773.81;;;16.84;86.08
13312;BME280;34033;48.672;9.376;2023-08-06T10:41:28;97774.88;;;17.02;86.45
13312;BME280;34033;48.672;9.376;2023-08-06T10:44:07;97780.44;;;17.57;84.00
13312;BME280;34033;48.672;9.376;2023-08-06T10:46:36;97779.53;;;17.85;81.67
13312;BME280;34033;48.672;9.376;2023-08-06T10:49:02;97774.19;;;18.34;79.93
13312;BME280;34033;48.672;9.376;2023-08-06T10:51:28;97775.47;;;18.55;77.27
13312;BME280;34033;48.672;9.376;2023-08-06T10:53:54;97794.59;;;18.51;78.81
13312;BME280;34033;48.672;9.376;2023-08-06T10:56:20;97782.94;;;17.80;81.43
13312;BME280;34033;48.672;9.376;2023-08-06T10:58:48;97780.91;;;17.68;82.93
13312;BME280;34033;48.672;9.376;2023-08-06T11:01:14;97790.50;;;17.70;83.29
13312;BME280;34033;48.672;9.376;2023-08-06T11:03:45;97786.09;;;17.69;84.10
13312;BME280;34033;48.672;9.376;2023-08-06T11:06:17;97785.50;;;17.49;85.46
13312;BME280;34033;48.672;9.376;2023-08-06T11:08:51;97792.97;;;17.43;84.53
13312;BME280;34033;48.672;9.376;2023-08-06T11:11:18;97792.63;;;17.53;84.84
13312;BME280;34033;48.672;9.376;2023-08-06T11:13:48;97795.47;;;17.66;85.66
13312;BME280;34033;48.672;9.376;2023-08-06T11:16:15;97798.66;;;17.68;85.27
13312;BME280;34033;48.672;9.376;2023-08-06T11:18:41;97790.41;;;17.61;84.28
13312;BME280;34033;48.672;9.376;2023-08-06T11:21:09;97792.44;;;17.61;85.44
13312;BME280;34033;48.672;9.376;2023-08-06T11:23:35;97796.41;;;17.63;85.93
13312;BME280;34033;48.672;9.376;2023-08-06T11:26:01;97794.91;;;17.59;84.15
13312;BME280;34033;48.672;9.376;2023-08-06T11:28:27;97797.47;;;17.28;84.74
13312;BME280;34033;48.672;9.376;2023-08-06T11:30:52;97797.03;;;17.29;86.89
13312;BME280;34033;48.672;9.376;2023-08-06T11:33:22;97785.75;;;17.29;87.46
13312;BME280;34033;48.672;9.376;2023-08-06T11:35:48;97798.28;;;17.28;87.81
13312;BME280;34033;48.672;9.376;2023-08-06T11:38:14;97800.16;;;17.06;87.81
13312;BME280;34033;48.672;9.376;2023-08-06T11:40:39;97795.00;;;17.17;87.54
13312;BME280;34033;48.672;9.376;2023-08-06T11:43:08;97809.31;;;17.10;84.34
13312;BME280;34033;48.672;9.376;2023-08-06T11:45:35;97811.22;;;17.00;84.51
13312;BME280;34033;48.672;9.376;2023-08-06T11:48:00;97829.31;;;17.03;84.96
13312;BME280;34033;48.672;9.376;2023-08-06T11:50:26;97817.84;;;16.81;80.34
13312;BME280;34033;48.672;9.376;2023-08-06T11:52:59;97818.44;;;16.89;79.97
13312;BME280;34033;48.672;9.376;2023-08-06T11:55:27;97821.25;;;16.89;76.26
13312;BME280;34033;48.672;9.376;2023-08-06T11:57:54;97826.69;;;16.96;75.72
13312;BME280;34033;48.672;9.376;2023-08-06T12:00:19;97825.59;;;17.06;75.34
13312;BME280;34033;48.672;9.376;2023-08-06T12:02:48;97825.53;;;17.35;76.58
13312;BME280;34033;48.672;9.376;2023-08-06T12:05:16;97834.22;;;17.40;73.22
13312;BME280;34033;48.672;9.376;2023-08-06T12:07:44;97840.75;;;17.37;73.20
13312;BME280;34033;48.672;9.376;2023-08-06T12:10:12;97853.94;;;17.15;72.11
13312;BME280;34033;48.672;9.376;2023-08-06T12:12:38;97844.13;;;17.07;73.30
13312;BME280;34033;48.672;9.376;2023-08-06T12:15:04;97852.69;;;17.03;74.10
13312;BME280;34033;48.672;9.376;2023-08-06T12:17:31;97866.16;;;17.12;75.26
13312;BME280;34033;48.672;9.376;2023-08-06T12:19:57;97859.81;;;17.08;74.58
13312;BME280;34033;48.672;9.376;2023-08-06T12:22:22;97862.97;;;16.97;73.43
13312;BME280;34033;48.672;9.376;2023-08-06T12:24:47;97859.94;;;17.17;74.40
13312;BME280;34033;48.672;9.376;2023-08-06T12:27:13;97863.69;;;17.27;72.17
13312;BME280;34033;48.672;9.376;2023-08-06T12:29:46;97879.88;;;17.39;72.84
13312;BME280;34033;48.672;9.376;2023-08-06T12:32:13;97888.91;;;17.34;70.56
13312;BME280;34033;48.672;9.376;2023-08-06T12:34:39;97882.22;;;17.28;71.66
13312;BME280;34033;48.672;9.376;2023-08-06T12:37:05;97885.16;;;17.24;69.36
13312;BME280;34033;48.672;9.376;2023-08-06T12:39:30;97873.94;;;17.08;70.09
13312;BME280;34033;48.672;9.376;2023-08-06T12:41:56;97898.41;;;16.98;70.50
13312;BME280;34033;48.672;9.376;2023-08-06T12:44:23;97900.84;;;16.84;69.96
13312;BME280;34033;48.672;9.376;2023-08-06T12:46:49;97916.03;;;16.74;69.68
13312;BME280;34033;48.672;9.376;2023-08-06T12:49:14;97902.19;;;16.79;71.14
13312;BME280;34033;48.672;9.376;2023-08-06T12:51:40;97896.69;;;16.88;71.10
13312;BME280;34033;48.672;9.376;2023-08-06T12:54:05;97895.91;;;17.29;72.86
13312;BME280;34033;48.672;9.376;2023-08-06T12:56:30;97905.41;;;17.35;70.28
13312;BME280;34033;48.672;9.376;2023-08-06T12:58:56;97905.66;;;17.41;70.34
13312;BME280;34033;48.672;9.376;2023-08-06T13:01:21;97910.66;;;17.21;69.10
13312;BME280;34033;48.672;9.376;2023-08-06T13:03:47;97917.28;;;17.01;70.41